createdAt,value
2018-07-06T00:01:45.814Z,65.91
2018-07-06T00:04:26.020Z,64.65
2018-07-06T00:07:06.375Z,65.24
2018-07-06T00:09:46.487Z,65.92
2018-07-06T00:12:26.589Z,65.62
2018-07-06T00:15:06.988Z,64.97
2018-07-06T00:17:47.189Z,63.92
2018-07-06T00:20:27.476Z,64.55
2018-07-06T00:23:07.808Z,63.87
2018-07-06T00:25:48.105Z,63.46
2018-07-06T00:28:28.361Z,63.32
2018-07-06T00:31:08.709Z,63.62
2018-07-06T00:33:49.000Z,64.46
2018-07-06T00:36:29.627Z,64.42
2018-07-06T00:39:09.951Z,64.24
2018-07-06T00:41:50.083Z,65.03
2018-07-06T00:44:30.190Z,65.40
2018-07-06T00:47:10.522Z,65.37
2018-07-06T00:49:50.722Z,66.38
2018-07-06T00:52:30.967Z,65.75
2018-07-06T00:55:11.217Z,65.43
2018-07-06T00:57:53.272Z,65.68
2018-07-06T01:00:33.489Z,65.38
2018-07-06T01:03:13.802Z,65.58
2018-07-06T01:05:54.144Z,66.19
2018-07-06T01:08:34.192Z,66.97
2018-07-06T01:11:14.495Z,67.24
2018-07-06T01:13:54.898Z,67.90
2018-07-06T01:16:34.994Z,67.39
2018-07-06T01:19:15.205Z,67.91
2018-07-06T01:21:55.541Z,67.89
2018-07-06T01:24:35.755Z,68.49
2018-07-06T01:27:15.830Z,68.26
2018-07-06T01:29:56.061Z,68.34
2018-07-06T01:32:36.185Z,69.08
2018-07-06T01:35:16.371Z,68.57
2018-07-06T01:37:56.556Z,69.08
2018-07-06T01:40:42.437Z,69.70
2018-07-06T01:43:22.455Z,69.50
2018-07-06T01:46:02.752Z,69.97
2018-07-06T01:48:42.918Z,70.04
2018-07-06T01:51:23.144Z,70.09
2018-07-06T01:54:03.293Z,70.31
2018-07-06T01:56:43.573Z,70.54
2018-07-06T01:59:23.754Z,71.30
2018-07-06T02:02:04.079Z,71.71
2018-07-06T02:04:44.217Z,71.74
2018-07-06T02:07:25.054Z,71.82
2018-07-06T02:10:05.285Z,72.36
2018-07-06T02:12:45.627Z,72.14
2018-07-06T02:15:25.943Z,72.40
2018-07-06T02:18:06.165Z,72.87
2018-07-06T02:20:46.361Z,72.62
2018-07-06T02:23:26.520Z,72.88
2018-07-06T02:26:06.923Z,72.90
2018-07-06T02:28:47.270Z,73.34
2018-07-06T02:31:27.689Z,73.25
2018-07-06T02:34:07.942Z,73.30
2018-07-06T02:36:48.274Z,74.39
2018-07-06T02:39:28.370Z,74.74
2018-07-06T02:42:08.686Z,75.09
2018-07-06T02:44:48.883Z,74.93
2018-07-06T02:47:29.171Z,75.08
2018-07-06T02:50:09.567Z,74.44
2018-07-06T02:52:49.889Z,75.84
2018-07-06T02:55:30.031Z,75.97
2018-07-06T02:58:10.211Z,75.17
2018-07-06T03:00:50.387Z,75.76
2018-07-06T03:03:30.602Z,75.29
2018-07-06T03:06:10.817Z,75.00
2018-07-06T03:08:51.160Z,74.85
2018-07-06T03:11:36.909Z,74.88
2018-07-06T03:14:17.304Z,75.51
2018-07-06T03:16:57.433Z,74.77
2018-07-06T03:19:37.662Z,74.68
2018-07-06T03:22:17.867Z,74.54
2018-07-06T03:24:57.953Z,74.98
2018-07-06T03:27:38.221Z,75.63
2018-07-06T03:30:18.389Z,75.97
2018-07-06T03:32:58.697Z,76.27
2018-07-06T03:35:39.034Z,76.46
2018-07-06T03:38:19.273Z,75.37
2018-07-06T03:40:59.442Z,75.22
2018-07-06T03:43:39.887Z,75.80
2018-07-06T03:46:20.188Z,76.70
2018-07-06T03:49:00.821Z,76.54
2018-07-06T03:51:40.991Z,76.14
2018-07-06T03:54:21.351Z,75.76
2018-07-06T03:57:01.549Z,74.90
2018-07-06T03:59:41.847Z,75.31
2018-07-06T04:02:22.197Z,75.71
2018-07-06T04:05:02.345Z,75.51
2018-07-06T04:07:42.673Z,74.57
2018-07-06T04:10:22.857Z,74.41
2018-07-06T04:13:03.165Z,74.44
2018-07-06T04:15:43.379Z,74.78
2018-07-06T04:18:23.551Z,75.00
2018-07-06T04:21:03.819Z,74.18
2018-07-06T04:23:44.035Z,74.08
2018-07-06T04:26:24.318Z,74.98
2018-07-06T04:29:04.447Z,75.20
2018-07-06T04:31:44.849Z,75.59
2018-07-06T04:34:25.205Z,75.21
2018-07-06T04:37:05.419Z,75.13
2018-07-06T04:39:45.719Z,74.80
2018-07-06T04:42:25.873Z,74.49
2018-07-06T04:45:06.294Z,73.89
2018-07-06T04:47:52.212Z,73.31
2018-07-06T04:50:32.478Z,73.05
2018-07-06T04:53:12.556Z,72.83
2018-07-06T04:55:52.929Z,72.72
2018-07-06T04:58:33.175Z,73.02
2018-07-06T05:01:13.415Z,72.87
2018-07-06T05:03:53.699Z,72.61
2018-07-06T05:06:34.020Z,72.60
2018-07-06T05:09:14.224Z,73.05
2018-07-06T05:12:00.136Z,73.50
2018-07-06T05:14:40.444Z,73.43
2018-07-06T05:17:20.588Z,73.13
2018-07-06T05:20:00.934Z,73.37
2018-07-06T05:22:41.291Z,73.65
2018-07-06T05:25:21.426Z,73.33
2018-07-06T05:28:01.818Z,72.93
2018-07-06T05:30:42.311Z,72.92
2018-07-06T05:33:22.548Z,72.07
2018-07-06T05:36:02.783Z,72.00
2018-07-06T05:38:43.132Z,71.62
2018-07-06T05:41:23.538Z,70.86
2018-07-06T05:44:03.691Z,71.11
2018-07-06T05:46:43.884Z,70.82
2018-07-06T05:49:24.310Z,70.50
2018-07-06T05:52:04.445Z,71.82
2018-07-06T05:54:44.780Z,71.81
2018-07-06T05:57:25.108Z,72.26
2018-07-06T06:00:05.322Z,72.17
2018-07-06T06:02:45.676Z,71.19
2018-07-06T06:05:25.772Z,71.21
2018-07-06T06:07:53.656Z,71.84
2018-07-06T06:10:22.552Z,71.72
2018-07-06T06:12:51.532Z,71.33
2018-07-06T06:15:20.467Z,71.29
2018-07-06T06:17:49.384Z,70.94
2018-07-06T06:20:18.642Z,71.51
2018-07-06T06:22:53.166Z,71.12
2018-07-06T06:25:22.121Z,70.52
2018-07-06T06:27:51.284Z,70.73
2018-07-06T06:30:20.280Z,70.55
2018-07-06T06:32:49.266Z,69.71
2018-07-06T06:35:18.226Z,70.98
2018-07-06T06:37:47.206Z,71.41
2018-07-06T06:40:16.141Z,71.33
2018-07-06T06:42:45.124Z,70.85
2018-07-06T06:45:14.054Z,70.77
2018-07-06T06:47:43.008Z,69.89
2018-07-06T06:50:11.952Z,70.16
2018-07-06T06:52:40.925Z,70.05
2018-07-06T06:55:09.888Z,70.33
2018-07-06T06:57:38.919Z,69.94
2018-07-06T07:00:07.850Z,69.59
2018-07-06T07:02:36.912Z,69.55
2018-07-06T07:05:05.920Z,69.01
2018-07-06T07:07:34.996Z,68.52
2018-07-06T07:10:03.867Z,68.31
2018-07-06T07:12:32.790Z,67.50
2018-07-06T07:15:01.751Z,67.42
2018-07-06T07:17:30.716Z,67.02
2018-07-06T07:19:59.752Z,67.02
2018-07-06T07:22:34.348Z,65.62
2018-07-06T07:25:03.327Z,63.72
2018-07-06T07:27:32.269Z,62.50
2018-07-06T07:30:01.228Z,60.63
2018-07-06T07:32:30.155Z,59.47
2018-07-06T07:34:59.137Z,59.26
2018-07-06T07:37:28.165Z,58.37
2018-07-06T07:39:57.120Z,57.90
2018-07-06T07:42:26.045Z,58.26
2018-07-06T07:44:55.019Z,57.87
2018-07-06T07:47:29.543Z,58.79
2018-07-06T07:50:04.032Z,58.93
2018-07-06T07:52:44.399Z,60.15
2018-07-06T07:55:13.381Z,59.00
2018-07-06T07:57:42.377Z,58.68
2018-07-06T08:00:11.310Z,58.89
2018-07-06T08:02:40.277Z,57.70
2018-07-06T08:05:09.191Z,56.92
2018-07-06T08:07:38.186Z,56.39
2018-07-06T08:10:07.111Z,56.31
2018-07-06T08:12:36.193Z,56.81
2018-07-06T08:15:05.201Z,57.41
2018-07-06T08:17:34.099Z,56.16
2018-07-06T08:20:03.068Z,55.92
2018-07-06T08:22:32.134Z,56.60
2018-07-06T08:25:01.107Z,56.37
2018-07-06T08:27:30.028Z,56.95
2018-07-06T08:29:58.967Z,56.52
2018-07-06T08:32:27.899Z,56.60
2018-07-06T08:35:08.190Z,55.45
2018-07-06T08:37:50.447Z,55.51
2018-07-06T08:40:20.115Z,55.59
2018-07-06T08:42:51.177Z,55.76
2018-07-06T08:45:20.142Z,55.17
2018-07-06T08:47:51.719Z,55.06
2018-07-06T08:50:20.685Z,55.86
2018-07-06T08:52:50.411Z,55.78
2018-07-06T08:55:19.771Z,56.68
2018-07-06T08:57:49.847Z,56.03
2018-07-06T09:00:18.837Z,55.16
2018-07-06T09:02:47.755Z,54.01
2018-07-06T09:05:16.682Z,54.10
2018-07-06T09:07:45.634Z,53.45
2018-07-06T09:10:14.564Z,52.67
2018-07-06T09:12:43.573Z,53.43
2018-07-06T09:15:12.510Z,53.89
2018-07-06T09:17:41.434Z,53.83
2018-07-06T09:20:10.484Z,54.17
2018-07-06T09:22:39.370Z,54.10
2018-07-06T09:25:08.671Z,54.15
2018-07-06T09:27:37.590Z,54.33
2018-07-06T09:30:06.562Z,55.00
2018-07-06T09:32:35.501Z,54.67
2018-07-06T09:35:04.546Z,55.09
2018-07-06T09:37:33.518Z,54.58
2018-07-06T09:40:02.420Z,53.83
2018-07-06T09:42:31.333Z,53.73
2018-07-06T09:45:00.245Z,53.43
2018-07-06T09:47:29.201Z,54.36
2018-07-06T09:49:58.109Z,53.60
2018-07-06T09:52:27.025Z,53.92
2018-07-06T09:54:55.966Z,53.85
2018-07-06T09:57:24.897Z,53.37
2018-07-06T09:59:53.849Z,53.27
2018-07-06T10:02:22.805Z,52.92
2018-07-06T10:04:51.837Z,52.66
2018-07-06T10:07:20.783Z,52.39
2018-07-06T10:09:49.780Z,52.39
2018-07-06T10:12:18.737Z,53.30
2018-07-06T10:14:47.662Z,53.06
2018-07-06T10:17:16.603Z,53.02
2018-07-06T10:19:45.597Z,52.69
2018-07-06T10:22:14.469Z,52.81
2018-07-06T10:24:43.368Z,52.40
2018-07-06T10:27:12.323Z,52.56
2018-07-06T10:29:50.475Z,51.70
2018-07-06T10:32:21.819Z,51.84
2018-07-06T10:34:51.592Z,51.39
2018-07-06T10:37:20.939Z,51.84
2018-07-06T10:39:50.434Z,50.39
2018-07-06T10:42:19.236Z,50.37
2018-07-06T10:44:48.146Z,50.46
2018-07-06T10:47:17.125Z,51.67
2018-07-06T10:49:46.084Z,51.11
2018-07-06T10:52:15.692Z,49.86
2018-07-06T10:54:44.968Z,49.62
2018-07-06T10:57:13.887Z,49.68
2018-07-06T10:59:42.809Z,47.90
2018-07-06T11:02:11.813Z,47.72
2018-07-06T11:04:40.787Z,48.07
2018-07-06T11:07:09.750Z,48.32
2018-07-06T11:09:38.839Z,47.90
2018-07-06T11:12:07.772Z,47.49
2018-07-06T11:14:36.745Z,47.74
2018-07-06T11:17:05.659Z,48.23
2018-07-06T11:19:34.591Z,47.47
2018-07-06T11:22:03.474Z,47.45
2018-07-06T11:24:32.439Z,46.60
2018-07-06T11:27:01.400Z,46.03
2018-07-06T11:29:30.361Z,46.01
2018-07-06T11:31:59.375Z,47.31
2018-07-06T11:34:28.359Z,47.26
2018-07-06T11:36:57.315Z,47.79
2018-07-06T11:39:26.251Z,47.69
2018-07-06T11:41:55.213Z,47.59
2018-07-06T11:44:24.131Z,47.60
2018-07-06T11:46:53.080Z,47.61
2018-07-06T11:49:22.058Z,47.32
2018-07-06T11:51:51.005Z,46.21
2018-07-06T11:54:19.937Z,46.76
2018-07-06T11:56:48.862Z,46.79
2018-07-06T11:59:17.787Z,47.27
2018-07-06T12:01:46.833Z,47.53
2018-07-06T12:04:15.796Z,46.90
2018-07-06T12:06:44.683Z,48.11
2018-07-06T12:09:13.661Z,48.34
2018-07-06T12:11:42.878Z,48.62
2018-07-06T12:14:11.839Z,49.72
2018-07-06T12:16:40.734Z,50.00
2018-07-06T12:19:13.005Z,48.98
2018-07-06T12:21:41.914Z,49.82
2018-07-06T12:24:10.811Z,49.67
2018-07-06T12:26:39.810Z,48.90
2018-07-06T12:29:08.735Z,49.50
2018-07-06T12:31:37.597Z,49.48
2018-07-06T12:34:06.622Z,49.47
2018-07-06T12:36:35.581Z,48.77
2018-07-06T12:39:04.967Z,48.94
2018-07-06T12:41:33.908Z,49.34
2018-07-06T12:44:02.837Z,49.18
2018-07-06T12:46:31.950Z,49.23
2018-07-06T12:49:00.918Z,49.14
2018-07-06T12:51:29.873Z,48.46
2018-07-06T12:53:58.787Z,47.90
2018-07-06T12:56:27.725Z,47.93
2018-07-06T12:58:56.686Z,47.85
2018-07-06T13:01:25.614Z,47.41
2018-07-06T13:03:54.543Z,46.67
2018-07-06T13:06:23.565Z,46.10
2018-07-06T13:08:52.627Z,46.72
2018-07-06T13:11:21.564Z,46.14
2018-07-06T13:13:50.497Z,46.15
2018-07-06T13:16:19.359Z,45.72
2018-07-06T13:18:48.318Z,45.67
2018-07-06T13:21:17.293Z,43.89
2018-07-06T13:23:46.528Z,43.02
2018-07-06T13:26:15.499Z,44.50
2018-07-06T13:28:44.459Z,44.79
2018-07-06T13:31:13.396Z,43.87
2018-07-06T13:33:42.381Z,43.41
2018-07-06T13:36:11.427Z,43.42
2018-07-06T13:38:40.410Z,43.72
2018-07-06T13:41:09.417Z,43.36
2018-07-06T13:43:38.470Z,42.83
2018-07-06T13:46:07.395Z,42.45
2018-07-06T13:48:36.335Z,43.02
2018-07-06T13:51:05.296Z,43.48
2018-07-06T13:53:34.273Z,43.59
2018-07-06T13:56:03.244Z,42.14
2018-07-06T13:58:32.199Z,42.12
2018-07-06T14:01:01.154Z,41.29
2018-07-06T14:03:30.117Z,40.48
2018-07-06T14:06:00.074Z,40.30
2018-07-06T14:08:29.006Z,40.30
2018-07-06T14:10:57.927Z,39.87
2018-07-06T14:13:26.958Z,39.91
2018-07-06T14:15:55.855Z,39.81
2018-07-06T14:18:25.139Z,40.67
2018-07-06T14:20:54.055Z,42.67
2018-07-06T14:23:22.961Z,43.52
2018-07-06T14:25:52.014Z,43.74
2018-07-06T14:28:20.971Z,43.51
2018-07-06T14:30:49.939Z,44.37
2018-07-06T14:33:24.371Z,45.36
2018-07-06T14:35:53.404Z,45.61
2018-07-06T14:38:22.303Z,45.55
2018-07-06T14:40:51.342Z,45.59
2018-07-06T14:43:20.221Z,45.33
2018-07-06T14:45:49.179Z,45.40
2018-07-06T14:48:18.106Z,45.14
2018-07-06T14:50:47.046Z,45.32
2018-07-06T14:53:15.971Z,44.74
2018-07-06T14:55:44.908Z,45.01
2018-07-06T14:58:13.799Z,44.67
2018-07-06T15:00:42.752Z,45.34
2018-07-06T15:03:11.688Z,45.60
2018-07-06T15:05:40.717Z,45.19
2018-07-06T15:08:09.654Z,45.50
2018-07-06T15:10:38.629Z,45.67
2018-07-06T15:13:07.548Z,45.10
2018-07-06T15:15:36.466Z,44.62
2018-07-06T15:18:05.576Z,44.19
2018-07-06T15:20:34.502Z,43.89
2018-07-06T15:23:03.514Z,44.00
2018-07-06T15:25:32.420Z,43.85
2018-07-06T15:28:01.344Z,44.13
2018-07-06T15:30:30.299Z,43.59
2018-07-06T15:32:59.196Z,43.13
2018-07-06T15:35:28.201Z,42.98
2018-07-06T15:37:57.077Z,42.64
2018-07-06T15:40:26.314Z,42.96
2018-07-06T15:42:55.248Z,42.71
2018-07-06T15:45:24.166Z,42.21
2018-07-06T15:47:59.785Z,42.80
2018-07-06T15:50:28.728Z,42.48
2018-07-06T15:52:57.671Z,42.97
2018-07-06T15:55:26.566Z,42.44
2018-07-06T15:58:01.045Z,43.13
2018-07-06T16:00:30.036Z,42.52
2018-07-06T16:02:59.000Z,42.46
2018-07-06T16:05:28.015Z,42.20
2018-07-06T16:07:56.912Z,42.23
2018-07-06T16:10:25.980Z,42.77
2018-07-06T16:12:54.967Z,42.73
2018-07-06T16:15:23.878Z,42.68
2018-07-06T16:17:52.793Z,42.71
2018-07-06T16:20:21.701Z,42.61
2018-07-06T16:22:50.661Z,42.65
2018-07-06T16:25:19.586Z,42.78
2018-07-06T16:27:48.566Z,42.93
2018-07-06T16:30:17.492Z,43.09
2018-07-06T16:32:46.445Z,41.63
2018-07-06T16:35:15.506Z,42.87
2018-07-06T16:37:44.395Z,41.96
2018-07-06T16:40:13.324Z,42.29
2018-07-06T16:42:42.310Z,42.64
2018-07-06T16:45:11.192Z,42.16
2018-07-06T16:47:40.100Z,42.29
2018-07-06T16:50:08.975Z,41.96
2018-07-06T16:52:37.944Z,42.73
2018-07-06T16:55:06.840Z,41.93
2018-07-06T16:57:41.304Z,42.08
2018-07-06T17:00:10.393Z,41.84
2018-07-06T17:02:39.358Z,42.40
2018-07-06T17:05:08.284Z,41.75
2018-07-06T17:07:37.292Z,41.55
2018-07-06T17:10:06.337Z,41.92
2018-07-06T17:12:35.284Z,41.25
2018-07-06T17:15:04.277Z,41.77
2018-07-06T17:17:33.220Z,42.04
2018-07-06T17:20:02.215Z,42.37
2018-07-06T17:22:31.186Z,43.04
2018-07-06T17:25:00.124Z,43.53
2018-07-06T17:27:29.079Z,43.83
2018-07-06T17:29:58.018Z,44.25
2018-07-06T17:32:32.477Z,44.27
2018-07-06T17:35:06.846Z,44.09
2018-07-06T17:37:41.263Z,44.12
2018-07-06T17:40:10.201Z,44.15
2018-07-06T17:42:39.234Z,44.06
2018-07-06T17:45:08.166Z,44.13
2018-07-06T17:47:37.042Z,44.53
2018-07-06T17:50:06.132Z,44.85
2018-07-06T17:52:35.084Z,44.41
2018-07-06T17:55:04.011Z,44.57
2018-07-06T17:57:32.924Z,45.04
2018-07-06T18:00:01.975Z,45.12
2018-07-06T18:02:30.989Z,45.22
2018-07-06T18:04:59.890Z,44.92
2018-07-06T18:07:28.973Z,44.75
2018-07-06T18:09:57.890Z,44.83
2018-07-06T18:12:32.284Z,45.39
2018-07-06T18:15:01.302Z,44.81
2018-07-06T18:17:31.512Z,45.56
2018-07-06T18:20:00.556Z,45.22
2018-07-06T18:22:35.487Z,45.27
2018-07-06T18:25:10.170Z,45.12
2018-07-06T18:27:39.086Z,45.34
2018-07-06T18:30:08.025Z,45.48
2018-07-06T18:32:36.979Z,45.94
2018-07-06T18:35:05.959Z,45.70
2018-07-06T18:37:35.000Z,46.20
2018-07-06T18:40:03.840Z,46.23
2018-07-06T18:42:32.892Z,46.03
2018-07-06T18:45:07.620Z,46.61
2018-07-06T18:47:36.696Z,46.70
2018-07-06T18:50:08.800Z,47.34
2018-07-06T18:52:37.738Z,47.73
2018-07-06T18:55:06.682Z,47.94
2018-07-06T18:57:35.656Z,48.31
2018-07-06T19:00:04.682Z,48.86
2018-07-06T19:02:33.596Z,48.96
2018-07-06T19:05:02.701Z,49.32
2018-07-06T19:07:31.654Z,49.43
2018-07-06T19:10:00.605Z,49.97
2018-07-06T19:12:29.686Z,50.45
2018-07-06T19:14:58.587Z,50.19
2018-07-06T19:17:31.398Z,50.17
2018-07-06T19:20:00.322Z,50.67
2018-07-06T19:22:29.287Z,50.43
2018-07-06T19:24:58.208Z,50.35
2018-07-06T19:27:32.694Z,50.58
2018-07-06T19:30:01.649Z,50.53
2018-07-06T19:32:30.634Z,50.45
2018-07-06T19:34:59.550Z,50.10
2018-07-06T19:37:28.536Z,50.31
2018-07-06T19:40:03.141Z,50.86
2018-07-06T19:42:32.150Z,50.84
2018-07-06T19:45:01.136Z,51.19
2018-07-06T19:47:30.114Z,51.21
2018-07-06T19:49:59.050Z,51.12
2018-07-06T19:52:27.982Z,51.46
2018-07-06T19:54:56.950Z,52.41
2018-07-06T19:57:25.915Z,52.50
2018-07-06T19:59:54.824Z,52.27
2018-07-06T20:02:23.730Z,53.28
2018-07-06T20:04:52.765Z,52.87
2018-07-06T20:07:21.690Z,53.42
2018-07-06T20:09:50.640Z,53.74
2018-07-06T20:12:19.666Z,53.81
2018-07-06T20:14:54.242Z,54.06
2018-07-06T20:17:28.541Z,54.58
2018-07-06T20:20:03.170Z,54.94
2018-07-06T20:22:32.344Z,55.00
2018-07-06T20:25:01.306Z,54.56
2018-07-06T20:27:30.286Z,55.41
2018-07-06T20:29:59.504Z,54.77
2018-07-06T20:32:28.545Z,55.23
2018-07-06T20:34:57.714Z,55.59
2018-07-06T20:37:26.710Z,56.11
2018-07-06T20:39:55.669Z,56.72
2018-07-06T20:42:24.647Z,56.11
2018-07-06T20:44:53.707Z,55.56
2018-07-06T20:47:22.640Z,55.67
2018-07-06T20:49:51.682Z,55.70
2018-07-06T20:52:20.696Z,55.50
2018-07-06T20:54:49.667Z,54.51
2018-07-06T20:57:18.629Z,55.17
2018-07-06T20:59:47.609Z,54.88
2018-07-06T21:02:16.541Z,54.27
2018-07-06T21:04:45.647Z,55.14
2018-07-06T21:07:14.508Z,53.66
2018-07-06T21:09:43.697Z,54.52
2018-07-06T21:12:12.601Z,54.19
2018-07-06T21:14:41.767Z,53.57
2018-07-06T21:17:10.703Z,54.01
2018-07-06T21:19:39.659Z,53.70
2018-07-06T21:22:08.675Z,54.04
2018-07-06T21:24:37.766Z,54.15
2018-07-06T21:27:06.729Z,54.13
2018-07-06T21:29:35.701Z,53.97
2018-07-06T21:32:04.701Z,54.36
2018-07-06T21:34:33.707Z,53.73
2018-07-06T21:37:02.951Z,53.24
2018-07-06T21:39:37.541Z,53.64
2018-07-06T21:42:06.540Z,53.37
2018-07-06T21:44:35.561Z,52.84
2018-07-06T21:47:05.000Z,52.90
2018-07-06T21:49:34.138Z,53.43
2018-07-06T21:52:03.209Z,53.43
2018-07-06T21:54:32.202Z,53.07
2018-07-06T21:57:01.279Z,53.46
2018-07-06T21:59:30.334Z,53.36
2018-07-06T22:01:59.699Z,52.68
2018-07-06T22:04:28.709Z,53.16
2018-07-06T22:06:57.681Z,52.92
2018-07-06T22:09:33.349Z,52.46
2018-07-06T22:12:02.305Z,52.21
2018-07-06T22:14:31.403Z,52.18
2018-07-06T22:17:00.382Z,51.46
2018-07-06T22:19:29.318Z,52.34
2018-07-06T22:21:58.309Z,52.51
2018-07-06T22:24:27.191Z,52.23
2018-07-06T22:26:56.120Z,52.41
2018-07-06T22:29:25.124Z,51.90
2018-07-06T22:31:54.056Z,51.57
2018-07-06T22:34:22.976Z,51.48
2018-07-06T22:36:51.987Z,51.89
2018-07-06T22:39:20.960Z,51.91
2018-07-06T22:41:50.424Z,51.68
2018-07-06T22:44:19.442Z,51.31
2018-07-06T22:46:48.367Z,50.41
2018-07-06T22:49:17.341Z,50.24
2018-07-06T22:51:46.404Z,49.98
2018-07-06T22:54:15.325Z,50.15
2018-07-06T22:56:44.305Z,48.79
2018-07-06T22:59:13.250Z,48.57
2018-07-06T23:01:42.170Z,47.24
2018-07-06T23:04:11.131Z,46.53
2018-07-06T23:06:40.091Z,46.70
2018-07-06T23:09:09.014Z,46.34
2018-07-06T23:11:37.935Z,46.34
2018-07-06T23:14:07.116Z,45.37
2018-07-06T23:16:41.545Z,45.55
2018-07-06T23:19:16.138Z,45.46
2018-07-06T23:21:45.105Z,45.19
2018-07-06T23:24:14.179Z,45.14
2018-07-06T23:26:43.122Z,44.77
2018-07-06T23:29:12.205Z,45.07
2018-07-06T23:31:41.147Z,44.81
2018-07-06T23:34:10.085Z,45.06
2018-07-06T23:36:39.087Z,45.63
2018-07-06T23:39:07.997Z,45.93
2018-07-06T23:41:36.989Z,46.74
2018-07-06T23:44:06.433Z,46.79
2018-07-06T23:46:35.357Z,47.33
2018-07-06T23:49:04.435Z,46.69
2018-07-06T23:51:33.453Z,47.12
2018-07-06T23:54:02.471Z,46.89
2018-07-06T23:56:31.446Z,46.54
2018-07-06T23:59:00.373Z,46.51
